sensor_id;sensor_type;location;lat;lon;timestamp;P1;durP1;ratioP1;P2;durP2;ratioP2
5191;SDS011;2615;44.524;11.284;2023-05-07T00:00:05;7.80;;;3.90;;
5191;SDS011;2615;44.524;11.284;2023-05-07T00:02:35;5.50;;;3.60;;
5191;SDS011;2615;44.524;11.284;2023-05-07T00:05:04;5.50;;;4.03;;
5191;SDS011;2615;44.524;11.284;2023-05-07T00:07:32;7.50;;;4.30;;
5191;SDS011;2615;44.524;11.284;2023-05-07T00:10:01;4.23;;;3.43;;
5191;SDS011;2615;44.524;11.284;2023-05-07T00:12:30;8.00;;;3.60;;
5191;SDS011;2615;44.524;11.284;2023-05-07T00:15:00;10.10;;;4.30;;
5191;SDS011;2615;44.524;11.284;2023-05-07T00:17:29;7.30;;;4.70;;
5191;SDS011;2615;44.524;11.284;2023-05-07T00:19:57;7.20;;;3.30;;
5191;SDS011;2615;44.524;11.284;2023-05-07T00:22:25;5.80;;;3.60;;
5191;SDS011;2615;44.524;11.284;2023-05-07T00:24:53;5.03;;;3.80;;
5191;SDS011;2615;44.524;11.284;2023-05-07T00:27:21;5.33;;;3.30;;
5191;SDS011;2615;44.524;11.284;2023-05-07T00:29:50;4.77;;;3.70;;
5191;SDS011;2615;44.524;11.284;2023-05-07T00:32:19;6.00;;;4.17;;
5191;SDS011;2615;44.524;11.284;2023-05-07T00:34:47;5.00;;;3.10;;
5191;SDS011;2615;44.524;11.284;2023-05-07T00:37:15;4.40;;;3.27;;
5191;SDS011;2615;44.524;11.284;2023-05-07T00:39:43;5.47;;;3.83;;
5191;SDS011;2615;44.524;11.284;2023-05-07T00:42:11;5.20;;;3.57;;
5191;SDS011;2615;44.524;11.284;2023-05-07T00:44:41;4.20;;;3.30;;
5191;SDS011;2615;44.524;11.284;2023-05-07T00:47:10;6.03;;;3.43;;
5191;SDS011;2615;44.524;11.284;2023-05-07T00:49:41;7.73;;;3.53;;
5191;SDS011;2615;44.524;11.284;2023-05-07T00:52:11;5.63;;;3.40;;
5191;SDS011;2615;44.524;11.284;2023-05-07T00:54:41;6.03;;;3.47;;
5191;SDS011;2615;44.524;11.284;2023-05-07T00:57:10;4.67;;;3.27;;
5191;SDS011;2615;44.524;11.284;2023-05-07T00:59:38;5.43;;;3.30;;
5191;SDS011;2615;44.524;11.284;2023-05-07T01:02:07;4.73;;;3.03;;
5191;SDS011;2615;44.524;11.284;2023-05-07T01:04:36;4.30;;;3.50;;
5191;SDS011;2615;44.524;11.284;2023-05-07T01:07:05;6.93;;;3.90;;
5191;SDS011;2615;44.524;11.284;2023-05-07T01:09:33;6.43;;;3.40;;
5191;SDS011;2615;44.524;11.284;2023-05-07T01:12:03;4.33;;;2.97;;
5191;SDS011;2615;44.524;11.284;2023-05-07T01:14:31;4.17;;;3.40;;
5191;SDS011;2615;44.524;11.284;2023-05-07T01:17:00;4.53;;;3.10;;
5191;SDS011;2615;44.524;11.284;2023-05-07T01:19:29;5.70;;;3.30;;
5191;SDS011;2615;44.524;11.284;2023-05-07T01:22:01;3.50;;;2.70;;
5191;SDS011;2615;44.524;11.284;2023-05-07T01:24:32;8.23;;;3.50;;
5191;SDS011;2615;44.524;11.284;2023-05-07T01:27:01;7.27;;;3.50;;
5191;SDS011;2615;44.524;11.284;2023-05-07T01:29:29;6.20;;;3.80;;
5191;SDS011;2615;44.524;11.284;2023-05-07T01:31:58;5.07;;;3.73;;
5191;SDS011;2615;44.524;11.284;2023-05-07T01:34:28;4.93;;;3.90;;
5191;SDS011;2615;44.524;11.284;2023-05-07T01:36:58;5.80;;;4.00;;
5191;SDS011;2615;44.524;11.284;2023-05-07T01:39:28;4.93;;;3.37;;
5191;SDS011;2615;44.524;11.284;2023-05-07T01:41:58;5.20;;;3.80;;
5191;SDS011;2615;44.524;11.284;2023-05-07T01:44:26;5.83;;;3.67;;
5191;SDS011;2615;44.524;11.284;2023-05-07T01:46:55;9.60;;;3.37;;
5191;SDS011;2615;44.524;11.284;2023-05-07T01:49:24;6.90;;;4.40;;
5191;SDS011;2615;44.524;11.284;2023-05-07T01:51:53;4.50;;;3.37;;
5191;SDS011;2615;44.524;11.284;2023-05-07T01:54:24;4.50;;;3.63;;
5191;SDS011;2615;44.524;11.284;2023-05-07T01:56:55;5.20;;;3.40;;
5191;SDS011;2615;44.524;11.284;2023-05-07T01:59:25;8.80;;;3.87;;
5191;SDS011;2615;44.524;11.284;2023-05-07T02:01:53;4.47;;;3.50;;
5191;SDS011;2615;44.524;11.284;2023-05-07T02:04:21;3.83;;;3.13;;
5191;SDS011;2615;44.524;11.284;2023-05-07T02:06:50;6.50;;;3.43;;
5191;SDS011;2615;44.524;11.284;2023-05-07T02:09:19;4.13;;;3.30;;
5191;SDS011;2615;44.524;11.284;2023-05-07T02:11:47;6.70;;;3.53;;
5191;SDS011;2615;44.524;11.284;2023-05-07T02:14:15;4.00;;;2.90;;
5191;SDS011;2615;44.524;11.284;2023-05-07T02:16:44;5.07;;;3.60;;
5191;SDS011;2615;44.524;11.284;2023-05-07T02:19:13;5.57;;;3.43;;
5191;SDS011;2615;44.524;11.284;2023-05-07T02:21:41;6.63;;;3.27;;
5191;SDS011;2615;44.524;11.284;2023-05-07T02:24:09;5.60;;;3.43;;
5191;SDS011;2615;44.524;11.284;2023-05-07T02:26:37;6.40;;;4.10;;
5191;SDS011;2615;44.524;11.284;2023-05-07T02:29:07;7.80;;;3.50;;
5191;SDS011;2615;44.524;11.284;2023-05-07T02:31:35;5.53;;;3.40;;
5191;SDS011;2615;44.524;11.284;2023-05-07T02:34:04;5.90;;;3.33;;
5191;SDS011;2615;44.524;11.284;2023-05-07T02:36:32;4.00;;;3.33;;
5191;SDS011;2615;44.524;11.284;2023-05-07T02:39:01;6.67;;;3.70;;
5191;SDS011;2615;44.524;11.284;2023-05-07T02:41:29;3.80;;;3.13;;
5191;SDS011;2615;44.524;11.284;2023-05-07T02:43:57;7.27;;;3.53;;
5191;SDS011;2615;44.524;11.284;2023-05-07T02:46:25;6.77;;;3.60;;
5191;SDS011;2615;44.524;11.284;2023-05-07T02:48:53;7.80;;;3.80;;
5191;SDS011;2615;44.524;11.284;2023-05-07T02:51:23;8.30;;;3.97;;
5191;SDS011;2615;44.524;11.284;2023-05-07T02:53:52;5.27;;;3.17;;
5191;SDS011;2615;44.524;11.284;2023-05-07T02:56:21;4.67;;;3.30;;
5191;SDS011;2615;44.524;11.284;2023-05-07T02:58:49;4.80;;;3.50;;
5191;SDS011;2615;44.524;11.284;2023-05-07T03:01:17;4.73;;;3.63;;
5191;SDS011;2615;44.524;11.284;2023-05-07T03:03:47;5.97;;;3.77;;
5191;SDS011;2615;44.524;11.284;2023-05-07T03:06:15;5.53;;;3.67;;
5191;SDS011;2615;44.524;11.284;2023-05-07T03:08:44;4.83;;;3.50;;
5191;SDS011;2615;44.524;11.284;2023-05-07T03:11:13;3.53;;;2.97;;
5191;SDS011;2615;44.524;11.284;2023-05-07T03:13:41;4.60;;;3.50;;
5191;SDS011;2615;44.524;11.284;2023-05-07T03:16:09;5.03;;;3.60;;
5191;SDS011;2615;44.524;11.284;2023-05-07T03:18:37;6.13;;;4.17;;
5191;SDS011;2615;44.524;11.284;2023-05-07T03:21:05;8.40;;;3.63;;
5191;SDS011;2615;44.524;11.284;2023-05-07T03:23:33;4.07;;;3.40;;
5191;SDS011;2615;44.524;11.284;2023-05-07T03:26:03;10.33;;;3.80;;
5191;SDS011;2615;44.524;11.284;2023-05-07T03:28:31;5.83;;;4.00;;
5191;SDS011;2615;44.524;11.284;2023-05-07T03:30:59;4.73;;;3.87;;
5191;SDS011;2615;44.524;11.284;2023-05-07T03:33:27;6.47;;;3.60;;
5191;SDS011;2615;44.524;11.284;2023-05-07T03:35:55;7.83;;;4.73;;
5191;SDS011;2615;44.524;11.284;2023-05-07T03:38:24;3.93;;;3.00;;
5191;SDS011;2615;44.524;11.284;2023-05-07T03:40:52;5.27;;;3.97;;
5191;SDS011;2615;44.524;11.284;2023-05-07T03:43:21;5.10;;;3.50;;
5191;SDS011;2615;44.524;11.284;2023-05-07T03:45:49;4.77;;;3.70;;
5191;SDS011;2615;44.524;11.284;2023-05-07T03:48:17;4.63;;;3.60;;
5191;SDS011;2615;44.524;11.284;2023-05-07T03:50:45;7.90;;;3.03;;
5191;SDS011;2615;44.524;11.284;2023-05-07T03:53:14;5.30;;;3.50;;
5191;SDS011;2615;44.524;11.284;2023-05-07T03:55:42;5.17;;;3.67;;
5191;SDS011;2615;44.524;11.284;2023-05-07T03:58:10;4.57;;;3.97;;
5191;SDS011;2615;44.524;11.284;2023-05-07T04:00:39;8.80;;;4.33;;
5191;SDS011;2615;44.524;11.284;2023-05-07T04:03:07;4.87;;;3.50;;
5191;SDS011;2615;44.524;11.284;2023-05-07T04:05:36;9.20;;;4.50;;
5191;SDS011;2615;44.524;11.284;2023-05-07T04:08:04;5.70;;;3.77;;
5191;SDS011;2615;44.524;11.284;2023-05-07T04:10:32;8.63;;;6.70;;
5191;SDS011;2615;44.524;11.284;2023-05-07T04:13:00;8.10;;;4.70;;
5191;SDS011;2615;44.524;11.284;2023-05-07T04:15:28;10.50;;;5.10;;
5191;SDS011;2615;44.524;11.284;2023-05-07T04:17:58;7.73;;;5.13;;
5191;SDS011;2615;44.524;11.284;2023-05-07T04:20:26;5.67;;;4.80;;
5191;SDS011;2615;44.524;11.284;2023-05-07T04:22:54;6.83;;;4.43;;
5191;SDS011;2615;44.524;11.284;2023-05-07T04:25:22;5.00;;;4.30;;
5191;SDS011;2615;44.524;11.284;2023-05-07T04:27:52;11.00;;;4.97;;
5191;SDS011;2615;44.524;11.284;2023-05-07T04:30:23;6.80;;;5.50;;
5191;SDS011;2615;44.524;11.284;2023-05-07T04:32:51;5.97;;;4.80;;
5191;SDS011;2615;44.524;11.284;2023-05-07T04:35:21;7.53;;;5.13;;
5191;SDS011;2615;44.524;11.284;2023-05-07T04:37:49;6.70;;;5.20;;
5191;SDS011;2615;44.524;11.284;2023-05-07T04:40:17;7.37;;;5.63;;
5191;SDS011;2615;44.524;11.284;2023-05-07T04:42:46;6.97;;;5.80;;
5191;SDS011;2615;44.524;11.284;2023-05-07T04:45:14;6.70;;;5.80;;
5191;SDS011;2615;44.524;11.284;2023-05-07T04:47:42;8.70;;;6.50;;
5191;SDS011;2615;44.524;11.284;2023-05-07T04:50:10;6.60;;;5.10;;
5191;SDS011;2615;44.524;11.284;2023-05-07T04:52:40;6.83;;;5.80;;
5191;SDS011;2615;44.524;11.284;2023-05-07T04:55:08;6.83;;;4.73;;
5191;SDS011;2615;44.524;11.284;2023-05-07T04:57:37;6.37;;;5.43;;
5191;SDS011;2615;44.524;11.284;2023-05-07T05:00:06;11.73;;;5.10;;
5191;SDS011;2615;44.524;11.284;2023-05-07T05:02:36;6.67;;;4.50;;
5191;SDS011;2615;44.524;11.284;2023-05-07T05:05:05;5.53;;;4.53;;
5191;SDS011;2615;44.524;11.284;2023-05-07T05:07:34;6.47;;;4.43;;
5191;SDS011;2615;44.524;11.284;2023-05-07T05:10:04;6.27;;;4.70;;
5191;SDS011;2615;44.524;11.284;2023-05-07T05:12:33;6.37;;;4.30;;
5191;SDS011;2615;44.524;11.284;2023-05-07T05:15:01;4.73;;;4.23;;
5191;SDS011;2615;44.524;11.284;2023-05-07T05:17:30;7.27;;;4.30;;
5191;SDS011;2615;44.524;11.284;2023-05-07T05:20:00;4.33;;;3.90;;
5191;SDS011;2615;44.524;11.284;2023-05-07T05:22:28;8.27;;;4.60;;
5191;SDS011;2615;44.524;11.284;2023-05-07T05:24:57;6.10;;;4.40;;
5191;SDS011;2615;44.524;11.284;2023-05-07T05:27:28;7.37;;;4.87;;
5191;SDS011;2615;44.524;11.284;2023-05-07T05:29:56;6.50;;;4.87;;
5191;SDS011;2615;44.524;11.284;2023-05-07T05:32:24;6.30;;;5.53;;
5191;SDS011;2615;44.524;11.284;2023-05-07T05:34:52;5.83;;;5.20;;
5191;SDS011;2615;44.524;11.284;2023-05-07T05:37:20;7.00;;;5.60;;
5191;SDS011;2615;44.524;11.284;2023-05-07T05:39:48;9.70;;;5.87;;
5191;SDS011;2615;44.524;11.284;2023-05-07T05:42:17;8.90;;;5.90;;
5191;SDS011;2615;44.524;11.284;2023-05-07T05:44:46;7.73;;;6.67;;
5191;SDS011;2615;44.524;11.284;2023-05-07T05:47:14;8.93;;;7.07;;
5191;SDS011;2615;44.524;11.284;2023-05-07T05:49:42;15.47;;;9.97;;
5191;SDS011;2615;44.524;11.284;2023-05-07T05:52:11;20.07;;;15.33;;
5191;SDS011;2615;44.524;11.284;2023-05-07T05:54:40;24.90;;;17.63;;
5191;SDS011;2615;44.524;11.284;2023-05-07T05:57:08;19.57;;;16.60;;
5191;SDS011;2615;44.524;11.284;2023-05-07T05:59:36;20.73;;;17.77;;
5191;SDS011;2615;44.524;11.284;2023-05-07T06:02:06;22.53;;;18.20;;
5191;SDS011;2615;44.524;11.284;2023-05-07T06:04:34;20.17;;;16.93;;
5191;SDS011;2615;44.524;11.284;2023-05-07T06:07:02;20.73;;;17.37;;
5191;SDS011;2615;44.524;11.284;2023-05-07T06:09:31;20.67;;;17.60;;
5191;SDS011;2615;44.524;11.284;2023-05-07T06:11:59;18.33;;;16.30;;
5191;SDS011;2615;44.524;11.284;2023-05-07T06:14:27;17.03;;;14.63;;
5191;SDS011;2615;44.524;11.284;2023-05-07T06:16:55;16.63;;;14.90;;
5191;SDS011;2615;44.524;11.284;2023-05-07T06:19:25;17.43;;;15.10;;
5191;SDS011;2615;44.524;11.284;2023-05-07T06:21:54;17.67;;;15.07;;
5191;SDS011;2615;44.524;11.284;2023-05-07T06:24:23;21.90;;;16.70;;
5191;SDS011;2615;44.524;11.284;2023-05-07T06:26:51;21.63;;;15.63;;
5191;SDS011;2615;44.524;11.284;2023-05-07T06:29:20;18.23;;;15.13;;
5191;SDS011;2615;44.524;11.284;2023-05-07T06:31:48;20.30;;;16.50;;
5191;SDS011;2615;44.524;11.284;2023-05-07T06:34:16;19.23;;;15.90;;
5191;SDS011;2615;44.524;11.284;2023-05-07T06:36:45;19.33;;;17.00;;
5191;SDS011;2615;44.524;11.284;2023-05-07T06:39:13;20.57;;;16.03;;
5191;SDS011;2615;44.524;11.284;2023-05-07T06:41:41;19.57;;;15.60;;
5191;SDS011;2615;44.524;11.284;2023-05-07T06:44:09;18.87;;;16.80;;
5191;SDS011;2615;44.524;11.284;2023-05-07T06:46:38;23.43;;;17.97;;
5191;SDS011;2615;44.524;11.284;2023-05-07T06:49:07;21.43;;;17.40;;
5191;SDS011;2615;44.524;11.284;2023-05-07T06:51:36;22.90;;;19.27;;
5191;SDS011;2615;44.524;11.284;2023-05-07T06:54:05;26.37;;;19.50;;
5191;SDS011;2615;44.524;11.284;2023-05-07T06:56:33;22.40;;;18.40;;
5191;SDS011;2615;44.524;11.284;2023-05-07T06:59:02;31.23;;;19.40;;
5191;SDS011;2615;44.524;11.284;2023-05-07T07:01:30;25.50;;;20.60;;
5191;SDS011;2615;44.524;11.284;2023-05-07T07:03:59;22.50;;;19.07;;
5191;SDS011;2615;44.524;11.284;2023-05-07T07:06:27;23.00;;;20.07;;
5191;SDS011;2615;44.524;11.284;2023-05-07T07:08:55;21.93;;;19.23;;
5191;SDS011;2615;44.524;11.284;2023-05-07T07:11:25;24.20;;;20.47;;
5191;SDS011;2615;44.524;11.284;2023-05-07T07:13:53;24.00;;;20.60;;
5191;SDS011;2615;44.524;11.284;2023-05-07T07:16:21;20.57;;;17.90;;
5191;SDS011;2615;44.524;11.284;2023-05-07T07:18:49;22.30;;;19.60;;
5191;SDS011;2615;44.524;11.284;2023-05-07T07:21:18;23.77;;;20.67;;
5191;SDS011;2615;44.524;11.284;2023-05-07T07:23:46;21.10;;;18.70;;
5191;SDS011;2615;44.524;11.284;2023-05-07T07:26:14;22.97;;;19.67;;
5191;SDS011;2615;44.524;11.284;2023-05-07T07:28:44;24.90;;;19.53;;
5191;SDS011;2615;44.524;11.284;2023-05-07T07:31:13;23.47;;;19.80;;
5191;SDS011;2615;44.524;11.284;2023-05-07T07:33:41;21.70;;;19.37;;
5191;SDS011;2615;44.524;11.284;2023-05-07T07:36:09;21.47;;;17.53;;
5191;SDS011;2615;44.524;11.284;2023-05-07T07:38:37;24.00;;;17.90;;
5191;SDS011;2615;44.524;11.284;2023-05-07T07:41:07;20.87;;;18.23;;
5191;SDS011;2615;44.524;11.284;2023-05-07T07:43:35;21.70;;;18.30;;
5191;SDS011;2615;44.524;11.284;2023-05-07T07:46:05;20.37;;;18.17;;
5191;SDS011;2615;44.524;11.284;2023-05-07T07:48:34;23.13;;;20.43;;
5191;SDS011;2615;44.524;11.284;2023-05-07T07:51:03;19.50;;;17.10;;
5191;SDS011;2615;44.524;11.284;2023-05-07T07:53:32;21.93;;;18.57;;
5191;SDS011;2615;44.524;11.284;2023-05-07T07:56:01;20.90;;;18.57;;
5191;SDS011;2615;44.524;11.284;2023-05-07T07:58:31;21.27;;;18.20;;
5191;SDS011;2615;44.524;11.284;2023-05-07T08:01:02;20.80;;;18.23;;
5191;SDS011;2615;44.524;11.284;2023-05-07T08:03:32;21.37;;;18.10;;
5191;SDS011;2615;44.524;11.284;2023-05-07T08:06:02;22.07;;;18.83;;
5191;SDS011;2615;44.524;11.284;2023-05-07T08:08:31;19.23;;;17.20;;
5191;SDS011;2615;44.524;11.284;2023-05-07T08:11:00;19.70;;;17.20;;
5191;SDS011;2615;44.524;11.284;2023-05-07T08:13:28;22.47;;;18.20;;
5191;SDS011;2615;44.524;11.284;2023-05-07T08:15:57;19.63;;;17.53;;
5191;SDS011;2615;44.524;11.284;2023-05-07T08:18:26;19.47;;;17.47;;
5191;SDS011;2615;44.524;11.284;2023-05-07T08:20:56;18.50;;;15.80;;
5191;SDS011;2615;44.524;11.284;2023-05-07T08:23:24;24.83;;;17.17;;
5191;SDS011;2615;44.524;11.284;2023-05-07T08:25:52;18.40;;;16.37;;
5191;SDS011;2615;44.524;11.284;2023-05-07T08:28:20;17.80;;;16.00;;
5191;SDS011;2615;44.524;11.284;2023-05-07T08:30:50;18.07;;;15.50;;
5191;SDS011;2615;44.524;11.284;2023-05-07T08:33:19;14.60;;;13.07;;
5191;SDS011;2615;44.524;11.284;2023-05-07T08:35:47;14.27;;;12.77;;
5191;SDS011;2615;44.524;11.284;2023-05-07T08:38:16;18.83;;;15.53;;
5191;SDS011;2615;44.524;11.284;2023-05-07T08:40:44;18.93;;;14.77;;
5191;SDS011;2615;44.524;11.284;2023-05-07T08:43:13;15.90;;;13.87;;
5191;SDS011;2615;44.524;11.284;2023-05-07T08:45:42;17.10;;;12.00;;
5191;SDS011;2615;44.524;11.284;2023-05-07T08:48:14;15.80;;;13.47;;
5191;SDS011;2615;44.524;11.284;2023-05-07T08:50:44;17.07;;;14.93;;
5191;SDS011;2615;44.524;11.284;2023-05-07T08:53:12;14.90;;;13.30;;
5191;SDS011;2615;44.524;11.284;2023-05-07T08:55:43;17.50;;;12.77;;
5191;SDS011;2615;44.524;11.284;2023-05-07T08:58:12;11.93;;;10.20;;
5191;SDS011;2615;44.524;11.284;2023-05-07T09:00:40;14.47;;;12.67;;
5191;SDS011;2615;44.524;11.284;2023-05-07T09:03:09;14.23;;;12.57;;
5191;SDS011;2615;44.524;11.284;2023-05-07T09:05:40;12.93;;;11.30;;
5191;SDS011;2615;44.524;11.284;2023-05-07T09:08:10;19.00;;;16.30;;
5191;SDS011;2615;44.524;11.284;2023-05-07T09:10:43;15.90;;;14.03;;
5191;SDS011;2615;44.524;11.284;2023-05-07T09:13:12;18.10;;;14.70;;
5191;SDS011;2615;44.524;11.284;2023-05-07T09:15:41;15.53;;;13.23;;
5191;SDS011;2615;44.524;11.284;2023-05-07T09:18:09;11.50;;;10.30;;
5191;SDS011;2615;44.524;11.284;2023-05-07T09:20:37;16.80;;;12.87;;
5191;SDS011;2615;44.524;11.284;2023-05-07T09:23:05;16.53;;;13.27;;
5191;SDS011;2615;44.524;11.284;2023-05-07T09:25:35;17.17;;;13.93;;
5191;SDS011;2615;44.524;11.284;2023-05-07T09:28:05;15.43;;;13.60;;
5191;SDS011;2615;44.524;11.284;2023-05-07T09:30:33;17.10;;;14.63;;
5191;SDS011;2615;44.524;11.284;2023-05-07T09:33:02;17.10;;;14.30;;
5191;SDS011;2615;44.524;11.284;2023-05-07T09:35:31;14.50;;;12.60;;
5191;SDS011;2615;44.524;11.284;2023-05-07T09:38:00;17.07;;;12.93;;
5191;SDS011;2615;44.524;11.284;2023-05-07T09:40:30;13.30;;;11.90;;
5191;SDS011;2615;44.524;11.284;2023-05-07T09:43:09;15.23;;;13.63;;
5191;SDS011;2615;44.524;11.284;2023-05-07T09:45:38;15.60;;;12.73;;
5191;SDS011;2615;44.524;11.284;2023-05-07T09:48:06;16.27;;;13.03;;
5191;SDS011;2615;44.524;11.284;2023-05-07T09:50:36;15.33;;;13.47;;
5191;SDS011;2615;44.524;11.284;2023-05-07T09:53:11;15.83;;;11.80;;
5191;SDS011;2615;44.524;11.284;2023-05-07T09:55:41;13.30;;;11.90;;
5191;SDS011;2615;44.524;11.284;2023-05-07T09:58:11;14.83;;;12.77;;
5191;SDS011;2615;44.524;11.284;2023-05-07T10:00:42;15.30;;;12.40;;
5191;SDS011;2615;44.524;11.284;2023-05-07T10:03:10;16.10;;;14.07;;
5191;SDS011;2615;44.524;11.284;2023-05-07T10:05:40;15.40;;;13.70;;
5191;SDS011;2615;44.524;11.284;2023-05-07T10:08:10;14.77;;;12.10;;
5191;SDS011;2615;44.524;11.284;2023-05-07T10:10:39;14.47;;;13.07;;
5191;SDS011;2615;44.524;11.284;2023-05-07T10:13:08;13.23;;;11.57;;
5191;SDS011;2615;44.524;11.284;2023-05-07T10:15:39;13.70;;;12.30;;
5191;SDS011;2615;44.524;11.284;2023-05-07T10:18:08;15.73;;;14.03;;
5191;SDS011;2615;44.524;11.284;2023-05-07T10:20:37;15.20;;;13.73;;
5191;SDS011;2615;44.524;11.284;2023-05-07T10:23:07;12.27;;;11.07;;
5191;SDS011;2615;44.524;11.284;2023-05-07T10:25:40;15.60;;;12.20;;
5191;SDS011;2615;44.524;11.284;2023-05-07T10:28:08;14.03;;;12.23;;
5191;SDS011;2615;44.524;11.284;2023-05-07T10:30:44;12.60;;;11.17;;
5191;SDS011;2615;44.524;11.284;2023-05-07T10:33:23;17.80;;;12.37;;
5191;SDS011;2615;44.524;11.284;2023-05-07T10:35:55;16.30;;;12.73;;
5191;SDS011;2615;44.524;11.284;2023-05-07T10:38:27;14.13;;;12.67;;
5191;SDS011;2615;44.524;11.284;2023-05-07T10:40:55;13.63;;;12.30;;
5191;SDS011;2615;44.524;11.284;2023-05-07T10:43:24;11.10;;;10.00;;
5191;SDS011;2615;44.524;11.284;2023-05-07T10:46:13;13.40;;;11.00;;
5191;SDS011;2615;44.524;11.284;2023-05-07T10:51:40;9.30;;;8.30;;
5191;SDS011;2615;44.524;11.284;2023-05-07T10:54:21;12.10;;;8.83;;
5191;SDS011;2615;44.524;11.284;2023-05-07T10:56:50;8.80;;;7.50;;
5191;SDS011;2615;44.524;11.284;2023-05-07T10:59:31;9.30;;;7.90;;
5191;SDS011;2615;44.524;11.284;2023-05-07T11:02:09;7.97;;;7.17;;
5191;SDS011;2615;44.524;11.284;2023-05-07T11:04:40;7.77;;;6.00;;
5191;SDS011;2615;44.524;11.284;2023-05-07T11:07:23;8.87;;;6.63;;
5191;SDS011;2615;44.524;11.284;2023-05-07T11:09:56;7.60;;;5.90;;
5191;SDS011;2615;44.524;11.284;2023-05-07T11:15:34;6.03;;;5.33;;
5191;SDS011;2615;44.524;11.284;2023-05-07T11:18:14;7.03;;;6.00;;
5191;SDS011;2615;44.524;11.284;2023-05-07T11:26:46;7.60;;;4.87;;
5191;SDS011;2615;44.524;11.284;2023-05-07T11:29:16;6.83;;;6.23;;
5191;SDS011;2615;44.524;11.284;2023-05-07T11:31:48;7.40;;;5.27;;
5191;SDS011;2615;44.524;11.284;2023-05-07T11:34:21;4.73;;;4.23;;
5191;SDS011;2615;44.524;11.284;2023-05-07T11:36:51;7.30;;;6.60;;
5191;SDS011;2615;44.524;11.284;2023-05-07T11:39:23;8.10;;;7.30;;
5191;SDS011;2615;44.524;11.284;2023-05-07T11:41:52;8.20;;;7.20;;
5191;SDS011;2615;44.524;11.284;2023-05-07T11:44:20;7.97;;;7.17;;
5191;SDS011;2615;44.524;11.284;2023-05-07T11:46:48;8.37;;;6.70;;
5191;SDS011;2615;44.524;11.284;2023-05-07T11:49:17;7.60;;;6.87;;
5191;SDS011;2615;44.524;11.284;2023-05-07T11:51:47;7.27;;;6.23;;
5191;SDS011;2615;44.524;11.284;2023-05-07T11:54:15;7.70;;;6.77;;
5191;SDS011;2615;44.524;11.284;2023-05-07T11:56:44;6.87;;;6.13;;
5191;SDS011;2615;44.524;11.284;2023-05-07T11:59:16;9.20;;;8.40;;
5191;SDS011;2615;44.524;11.284;2023-05-07T12:01:45;7.73;;;6.97;;
5191;SDS011;2615;44.524;11.284;2023-05-07T12:04:18;10.90;;;6.10;;
5191;SDS011;2615;44.524;11.284;2023-05-07T12:06:53;6.90;;;6.20;;
5191;SDS011;2615;44.524;11.284;2023-05-07T12:09:22;6.20;;;5.67;;
5191;SDS011;2615;44.524;11.284;2023-05-07T12:11:51;6.37;;;5.77;;
5191;SDS011;2615;44.524;11.284;2023-05-07T12:14:20;10.80;;;7.30;;
5191;SDS011;2615;44.524;11.284;2023-05-07T12:16:48;10.30;;;7.47;;
5191;SDS011;2615;44.524;11.284;2023-05-07T12:19:16;10.00;;;7.33;;
5191;SDS011;2615;44.524;11.284;2023-05-07T12:21:44;8.60;;;7.20;;
5191;SDS011;2615;44.524;11.284;2023-05-07T12:24:15;7.67;;;6.97;;
5191;SDS011;2615;44.524;11.284;2023-05-07T12:26:47;7.60;;;6.90;;
5191;SDS011;2615;44.524;11.284;2023-05-07T12:29:15;9.17;;;6.73;;
5191;SDS011;2615;44.524;11.284;2023-05-07T12:31:44;8.43;;;7.07;;
5191;SDS011;2615;44.524;11.284;2023-05-07T12:34:12;8.43;;;7.60;;
5191;SDS011;2615;44.524;11.284;2023-05-07T12:36:40;9.40;;;8.10;;
5191;SDS011;2615;44.524;11.284;2023-05-07T12:39:08;9.17;;;8.27;;
5191;SDS011;2615;44.524;11.284;2023-05-07T12:44:31;7.10;;;6.40;;
5191;SDS011;2615;44.524;11.284;2023-05-07T12:47:01;8.17;;;7.37;;
5191;SDS011;2615;44.524;11.284;2023-05-07T12:49:29;8.40;;;7.60;;
5191;SDS011;2615;44.524;11.284;2023-05-07T12:51:58;7.80;;;6.63;;
5191;SDS011;2615;44.524;11.284;2023-05-07T12:54:29;8.13;;;7.33;;
5191;SDS011;2615;44.524;11.284;2023-05-07T12:57:01;7.60;;;6.83;;
5191;SDS011;2615;44.524;11.284;2023-05-07T12:59:32;8.50;;;7.73;;
5191;SDS011;2615;44.524;11.284;2023-05-07T13:02:01;8.10;;;7.30;;
5191;SDS011;2615;44.524;11.284;2023-05-07T13:04:29;10.03;;;7.80;;
5191;SDS011;2615;44.524;11.284;2023-05-07T13:06:57;8.93;;;7.00;;
5191;SDS011;2615;44.524;11.284;2023-05-07T13:09:25;8.30;;;6.83;;
5191;SDS011;2615;44.524;11.284;2023-05-07T13:11:55;7.20;;;6.47;;
5191;SDS011;2615;44.524;11.284;2023-05-07T13:14:26;8.23;;;6.87;;
5191;SDS011;2615;44.524;11.284;2023-05-07T13:16:56;6.67;;;5.97;;
5191;SDS011;2615;44.524;11.284;2023-05-07T13:19:24;7.40;;;6.23;;
5191;SDS011;2615;44.524;11.284;2023-05-07T13:21:55;7.63;;;6.63;;
5191;SDS011;2615;44.524;11.284;2023-05-07T13:24:23;7.40;;;6.27;;
5191;SDS011;2615;44.524;11.284;2023-05-07T13:26:51;8.50;;;7.27;;
5191;SDS011;2615;44.524;11.284;2023-05-07T13:29:19;9.70;;;7.90;;
5191;SDS011;2615;44.524;11.284;2023-05-07T13:31:51;7.70;;;6.60;;
5191;SDS011;2615;44.524;11.284;2023-05-07T13:34:21;8.67;;;6.70;;
5191;SDS011;2615;44.524;11.284;2023-05-07T13:36:49;8.57;;;6.77;;
5191;SDS011;2615;44.524;11.284;2023-05-07T13:39:17;9.00;;;8.00;;
5191;SDS011;2615;44.524;11.284;2023-05-07T13:41:46;9.73;;;8.67;;
5191;SDS011;2615;44.524;11.284;2023-05-07T13:44:14;7.93;;;6.90;;
5191;SDS011;2615;44.524;11.284;2023-05-07T13:46:42;11.70;;;8.23;;
5191;SDS011;2615;44.524;11.284;2023-05-07T13:49:10;10.87;;;8.57;;
5191;SDS011;2615;44.524;11.284;2023-05-07T13:51:40;9.27;;;7.57;;
5191;SDS011;2615;44.524;11.284;2023-05-07T13:54:09;9.97;;;7.67;;
5191;SDS011;2615;44.524;11.284;2023-05-07T13:56:38;8.73;;;7.83;;
5191;SDS011;2615;44.524;11.284;2023-05-07T13:59:06;12.77;;;8.53;;
5191;SDS011;2615;44.524;11.284;2023-05-07T14:01:34;11.57;;;9.77;;
5191;SDS011;2615;44.524;11.284;2023-05-07T14:04:02;11.13;;;8.10;;
5191;SDS011;2615;44.524;11.284;2023-05-07T14:06:31;9.93;;;8.10;;
5191;SDS011;2615;44.524;11.284;2023-05-07T14:09:00;12.77;;;8.37;;
5191;SDS011;2615;44.524;11.284;2023-05-07T14:11:28;9.50;;;7.50;;
5191;SDS011;2615;44.524;11.284;2023-05-07T14:13:59;9.07;;;7.27;;
5191;SDS011;2615;44.524;11.284;2023-05-07T14:16:27;6.60;;;5.90;;
5191;SDS011;2615;44.524;11.284;2023-05-07T14:18:55;7.50;;;6.80;;
5191;SDS011;2615;44.524;11.284;2023-05-07T14:21:24;7.67;;;6.97;;
5191;SDS011;2615;44.524;11.284;2023-05-07T14:23:52;8.27;;;7.33;;
5191;SDS011;2615;44.524;11.284;2023-05-07T14:26:23;7.87;;;6.97;;
5191;SDS011;2615;44.524;11.284;2023-05-07T14:28:53;7.57;;;6.73;;
5191;SDS011;2615;44.524;11.284;2023-05-07T14:31:23;8.30;;;7.40;;
5191;SDS011;2615;44.524;11.284;2023-05-07T14:33:52;8.63;;;7.13;;
5191;SDS011;2615;44.524;11.284;2023-05-07T14:36:20;8.23;;;6.77;;
5191;SDS011;2615;44.524;11.284;2023-05-07T14:38:49;8.33;;;6.90;;
5191;SDS011;2615;44.524;11.284;2023-05-07T14:41:17;9.43;;;7.50;;
5191;SDS011;2615;44.524;11.284;2023-05-07T14:43:46;7.90;;;6.30;;
5191;SDS011;2615;44.524;11.284;2023-05-07T14:46:16;7.37;;;6.67;;
5191;SDS011;2615;44.524;11.284;2023-05-07T14:48:45;8.10;;;7.30;;
5191;SDS011;2615;44.524;11.284;2023-05-07T14:51:13;7.97;;;7.03;;
5191;SDS011;2615;44.524;11.284;2023-05-07T14:53:41;7.03;;;6.33;;
5191;SDS011;2615;44.524;11.284;2023-05-07T14:56:09;8.60;;;7.70;;
5191;SDS011;2615;44.524;11.284;2023-05-07T14:58:37;8.20;;;6.83;;
5191;SDS011;2615;44.524;11.284;2023-05-07T15:01:07;11.57;;;7.80;;
5191;SDS011;2615;44.524;11.284;2023-05-07T15:03:35;8.10;;;7.20;;
5191;SDS011;2615;44.524;11.284;2023-05-07T15:06:04;7.53;;;6.70;;
5191;SDS011;2615;44.524;11.284;2023-05-07T15:08:32;8.60;;;7.10;;
5191;SDS011;2615;44.524;11.284;2023-05-07T15:11:00;9.80;;;6.90;;
5191;SDS011;2615;44.524;11.284;2023-05-07T15:13:28;7.20;;;6.50;;
5191;SDS011;2615;44.524;11.284;2023-05-07T15:15:56;8.90;;;6.90;;
5191;SDS011;2615;44.524;11.284;2023-05-07T15:18:26;8.43;;;7.07;;